Darstellungsparameter: Aktuell verwendete Einstellungen:
Skalierung der Graphiken ... ?
xyx+y,   Skalierungsfaktor:      Skalierung: Modus: x, Faktor: 1
Darstellungszeitraum ... ?
Vom - - bis: - -   Zeitraum: 10.06.2014 - 12.06.2014
Min/Max/Avg-Anzeige ... ?
Zeige MMA aktuell
Zeige MMA Monat
Zeige MMA alles
Zeige --A aktuell
Zeige --A Monat
Zeige --A alles
Keine MMA-Anzeige
MMA:
Average (ber die Originaldaten)
MMA-Basis: 10.06.2014 - 12.06.2014
Quicknavigation für Darstellung... ?
Tage:      1T, 2T, 3T, 5T -1T -2T -3T -5T +1T +2T +3T +5T
Wochen: 1W, 2W, 3W -1W -2W -3W +1W +2W +3W
Monate: 1M, 3M, 6M -1M -3M -6M +1M +3M +6M
Jahre:    1J, 3J, 5J, 10J -1J -3J -5J -10J +1J +3J +5J +10J
Nutze für die Darstellung ... ?
Originaldaten oder Mittelwerte auf ...
Stundenbasis Tagesbasis Wochenbasis
Monatsbasis Jahresbasis      Datenbasis: Original-Daten
Darstellen als:
Statistik (Auto) Statistik J:M      Darstellung:
Zur Graphik,    zurück zur Übersicht aller Sensoren.
 
Tabellarische Datenbersicht: ?
 
Sensor: Nr:Datum:Temp:Abs-Feuchte:Windchill:Wind:
Aussen-T/F 1 10-06-2014 00:00:00 18.8 C 12.88 g/m*3 18.8 C 0 km/h
2 10-06-2014 00:05:00 18.7 C 12.81 g/m*3 18.7 C 0 km/h
3 10-06-2014 00:10:00 18.6 C 12.89 g/m*3 18.6 C 0 km/h
4 10-06-2014 00:15:00 18.6 C 12.89 g/m*3 18.6 C 0 km/h
5 10-06-2014 00:20:00 18.6 C 12.89 g/m*3 18.6 C 0 km/h
6 10-06-2014 00:25:00 18.5 C 12.82 g/m*3 18.5 C 0 km/h
7 10-06-2014 00:30:00 18.4 C 12.9 g/m*3 18.4 C 0 km/h
8 10-06-2014 00:35:00 18.4 C 12.9 g/m*3 18.4 C 0 km/h
9 10-06-2014 00:40:00 18.3 C 12.82 g/m*3 18.3 C 0 km/h
10 10-06-2014 00:45:00 18.3 C 12.82 g/m*3 18.3 C 0 km/h
11 10-06-2014 00:50:00 18.2 C 12.75 g/m*3 18.2 C 0 km/h
12 10-06-2014 00:55:00 18.2 C 12.75 g/m*3 18.2 C 0 km/h
13 10-06-2014 01:00:00 18.1 C 12.82 g/m*3 18.1 C 0 km/h
14 10-06-2014 01:05:00 18 C 12.75 g/m*3 18 C 0 km/h
15 10-06-2014 01:10:00 17.9 C 12.67 g/m*3 17.9 C 0 km/h
16 10-06-2014 01:15:00 17.9 C 12.67 g/m*3 17.9 C 0 km/h
17 10-06-2014 01:20:00 17.8 C 12.6 g/m*3 17.8 C 0 km/h
18 10-06-2014 01:25:00 17.8 C 12.75 g/m*3 17.8 C 0 km/h
19 10-06-2014 01:30:00 17.7 C 12.67 g/m*3 17.7 C 0 km/h
20 10-06-2014 01:35:00 17.6 C 12.6 g/m*3 17.6 C 0 km/h
21 10-06-2014 01:40:00 17.6 C 12.75 g/m*3 17.6 C 1.6 km/h
22 10-06-2014 01:45:00 17.6 C 12.75 g/m*3 17.6 C 0 km/h
23 10-06-2014 01:50:00 17.5 C 12.67 g/m*3 17.5 C 0 km/h
24 10-06-2014 01:55:00 17.5 C 12.67 g/m*3 17.5 C 0 km/h
25 10-06-2014 02:00:00 17.4 C 12.75 g/m*3 17.4 C 0 km/h
Sensor: Nr:Datum:Temp:Abs-Feuchte:Windchill:Wind:
Aussen-T/F 26 10-06-2014 02:05:00 17.4 C 12.75 g/m*3 17.4 C 1.6 km/h
27 10-06-2014 02:10:00 17.4 C 12.75 g/m*3 17.4 C 1.6 km/h
28 10-06-2014 02:15:00 17.3 C 12.67 g/m*3 17.3 C 0 km/h
29 10-06-2014 02:20:00 17.3 C 12.67 g/m*3 17.3 C 0 km/h
30 10-06-2014 02:25:00 17.2 C 12.59 g/m*3 17.2 C 0 km/h
31 10-06-2014 02:30:00 17.1 C 12.66 g/m*3 17.1 C 0 km/h
32 10-06-2014 02:35:00 17 C 12.59 g/m*3 17 C 0 km/h
33 10-06-2014 02:40:00 17 C 12.59 g/m*3 17 C 0 km/h
34 10-06-2014 02:45:00 16.9 C 12.51 g/m*3 16.9 C 0 km/h
35 10-06-2014 02:50:00 16.9 C 12.51 g/m*3 16.9 C 0 km/h
36 10-06-2014 02:55:00 16.8 C 12.58 g/m*3 16.8 C 0 km/h
37 10-06-2014 03:00:00 16.8 C 12.58 g/m*3 16.8 C 0 km/h
38 10-06-2014 03:05:00 16.7 C 12.51 g/m*3 16.7 C 0 km/h
39 10-06-2014 03:10:00 16.6 C 12.43 g/m*3 16.6 C 0 km/h
40 10-06-2014 03:15:00 16.6 C 12.57 g/m*3 16.6 C 0 km/h
41 10-06-2014 03:20:00 16.6 C 12.57 g/m*3 16.6 C 0 km/h
42 10-06-2014 03:25:00 16.6 C 12.57 g/m*3 16.6 C 0 km/h
43 10-06-2014 03:30:00 16.6 C 12.57 g/m*3 16.6 C 3.2 km/h
44 10-06-2014 03:35:00 16.6 C 12.57 g/m*3 16.6 C 0 km/h
45 10-06-2014 03:40:00 16.6 C 12.57 g/m*3 16.6 C 0 km/h
46 10-06-2014 03:45:00 16.6 C 12.57 g/m*3 16.6 C 0 km/h
47 10-06-2014 03:50:00 16.6 C 12.57 g/m*3 16.6 C 1.6 km/h
48 10-06-2014 03:55:00 16.6 C 12.57 g/m*3 16.6 C 0 km/h
49 10-06-2014 04:00:00 16.6 C 12.57 g/m*3 16.6 C 1.6 km/h
50 10-06-2014 04:05:00 16.6 C 12.57 g/m*3 16.6 C 0 km/h
Sensor: Nr:Datum:Temp:Abs-Feuchte:Windchill:Wind:
Aussen-T/F 51 10-06-2014 04:10:00 16.6 C 12.57 g/m*3 16.6 C 0 km/h
52 10-06-2014 04:15:00 16.4 C 12.42 g/m*3 16.4 C 0 km/h
53 10-06-2014 04:20:00 16.3 C 12.35 g/m*3 16.3 C 0 km/h
54 10-06-2014 04:25:00 16.3 C 12.35 g/m*3 16.3 C 0 km/h
55 10-06-2014 04:30:00 16.3 C 12.35 g/m*3 16.3 C 0 km/h
56 10-06-2014 04:35:00 16.3 C 12.35 g/m*3 16.3 C 0 km/h
57 10-06-2014 04:40:00 16.2 C 12.27 g/m*3 16.2 C 0 km/h
58 10-06-2014 04:45:00 16.2 C 12.41 g/m*3 16.2 C 4.8 km/h
59 10-06-2014 04:50:00 16.2 C 12.27 g/m*3 16.2 C 4.8 km/h
60 10-06-2014 04:55:00 16.2 C 12.41 g/m*3 16.2 C 0 km/h
61 10-06-2014 05:00:00 16.1 C 12.2 g/m*3 16.1 C 0 km/h
62 10-06-2014 05:05:00 16.1 C 12.2 g/m*3 16.1 C 0 km/h
63 10-06-2014 05:10:00 16 C 12.26 g/m*3 16 C 0 km/h
64 10-06-2014 05:15:00 16 C 12.4 g/m*3 16 C 0 km/h
65 10-06-2014 05:20:00 15.9 C 12.32 g/m*3 15.9 C 0 km/h
66 10-06-2014 05:25:00 15.9 C 12.32 g/m*3 15.9 C 0 km/h
67 10-06-2014 05:30:00 15.9 C 12.32 g/m*3 15.9 C 0 km/h
68 10-06-2014 05:35:00 15.9 C 12.32 g/m*3 15.9 C 0 km/h
69 10-06-2014 05:40:00 16 C 12.4 g/m*3 16 C 0 km/h
70 10-06-2014 05:45:00 16.1 C 12.61 g/m*3 16.1 C 0 km/h
71 10-06-2014 05:50:00 16.1 C 12.47 g/m*3 16.1 C 1.6 km/h
72 10-06-2014 05:55:00 16.3 C 12.62 g/m*3 16.3 C 6.4 km/h
73 10-06-2014 06:00:00 16.4 C 12.56 g/m*3 16.4 C 6.4 km/h
74 10-06-2014 06:05:00 16.5 C 12.64 g/m*3 16.5 C 1.6 km/h
75 10-06-2014 06:10:00 16.6 C 12.71 g/m*3 16.6 C 6.4 km/h
Sensor: Nr:Datum:Temp:Abs-Feuchte:Windchill:Wind:
Aussen-T/F 76 10-06-2014 06:15:00 16.7 C 12.79 g/m*3 16.7 C 1.6 km/h
77 10-06-2014 06:20:00 16.6 C 12.71 g/m*3 16.6 C 0 km/h
78 10-06-2014 06:25:00 16.7 C 12.79 g/m*3 16.7 C 0 km/h
79 10-06-2014 06:30:00 16.6 C 12.71 g/m*3 16.6 C 0 km/h
80 10-06-2014 06:35:00 16.7 C 12.65 g/m*3 16.7 C 1.6 km/h
81 10-06-2014 06:40:00 16.7 C 12.65 g/m*3 16.7 C 1.6 km/h
82 10-06-2014 06:45:00 16.8 C 12.72 g/m*3 16.8 C 4.8 km/h
83 10-06-2014 06:50:00 16.8 C 12.87 g/m*3 16.8 C 0 km/h
84 10-06-2014 06:55:00 16.8 C 12.87 g/m*3 16.8 C 0 km/h
85 10-06-2014 07:00:00 16.8 C 12.87 g/m*3 16.8 C 4.8 km/h
86 10-06-2014 07:05:00 16.8 C 12.87 g/m*3 16.8 C 4.8 km/h
87 10-06-2014 07:10:00 17.3 C 13.11 g/m*3 17.3 C 1.6 km/h
88 10-06-2014 07:15:00 17.6 C 13.35 g/m*3 17.6 C 4.8 km/h
89 10-06-2014 07:20:00 17.7 C 13.28 g/m*3 17.7 C 3.2 km/h
90 10-06-2014 07:25:00 18 C 13.36 g/m*3 18 C 4.8 km/h
91 10-06-2014 07:30:00 18.3 C 13.6 g/m*3 18.3 C 0 km/h
92 10-06-2014 07:35:00 18.4 C 13.68 g/m*3 18.4 C 0 km/h
93 10-06-2014 07:40:00 18.6 C 13.69 g/m*3 18.6 C 1.6 km/h
94 10-06-2014 07:45:00 18.7 C 13.77 g/m*3 18.7 C 0 km/h
95 10-06-2014 07:50:00 18.8 C 13.53 g/m*3 18.8 C 0 km/h
96 10-06-2014 07:55:00 18.9 C 13.93 g/m*3 18.9 C 0 km/h
97 10-06-2014 08:00:00 18.9 C 13.61 g/m*3 18.9 C 0 km/h
98 10-06-2014 08:05:00 19.1 C 13.93 g/m*3 19.1 C 0 km/h
99 10-06-2014 08:10:00 19.2 C 14.02 g/m*3 19.2 C 0 km/h
100 10-06-2014 08:15:00 19.4 C 14.01 g/m*3 19.4 C 0 km/h
Sensor: Nr:Datum:Temp:Abs-Feuchte:Windchill:Wind:
Aussen-T/F 101 10-06-2014 08:20:00 19.6 C 14.18 g/m*3 19.6 C 0 km/h
102 10-06-2014 08:25:00 19.8 C 14.35 g/m*3 19.8 C 0 km/h
103 10-06-2014 08:30:00 19.9 C 14.43 g/m*3 19.9 C 1.6 km/h
104 10-06-2014 08:35:00 20.1 C 14.25 g/m*3 20.1 C 0 km/h
105 10-06-2014 08:40:00 20.4 C 14.51 g/m*3 20.4 C 0 km/h
106 10-06-2014 08:45:00 20.7 C 14.58 g/m*3 20.7 C 0 km/h
107 10-06-2014 08:50:00 21 C 14.65 g/m*3 21 C 0 km/h
108 10-06-2014 08:55:00 21.2 C 14.83 g/m*3 21.2 C 0 km/h
109 10-06-2014 09:00:00 21.2 C 14.64 g/m*3 21.2 C 0 km/h
110 10-06-2014 09:05:00 21.3 C 14.35 g/m*3 21.3 C 0 km/h
111 10-06-2014 09:10:00 21.3 C 14.73 g/m*3 21.3 C 0 km/h
112 10-06-2014 09:15:00 21.3 C 14.54 g/m*3 21.3 C 0 km/h
113 10-06-2014 09:20:00 21.1 C 14.56 g/m*3 21.1 C 0 km/h
114 10-06-2014 09:25:00 20.8 C 14.67 g/m*3 20.8 C 0 km/h
115 10-06-2014 09:30:00 20.8 C 14.67 g/m*3 20.8 C 0 km/h
116 10-06-2014 09:35:00 21 C 14.65 g/m*3 21 C 3.2 km/h
117 10-06-2014 09:40:00 21.4 C 13.87 g/m*3 21.4 C 3.2 km/h
118 10-06-2014 09:45:00 21.8 C 14.01 g/m*3 21.8 C 1.6 km/h
119 10-06-2014 09:50:00 21.8 C 14.58 g/m*3 21.8 C 0 km/h
120 10-06-2014 09:55:00 21.6 C 14.79 g/m*3 21.6 C 0 km/h
121 10-06-2014 10:00:00 21.4 C 15 g/m*3 21.4 C 0 km/h
122 10-06-2014 10:05:00 21.7 C 15.26 g/m*3 21.7 C 0 km/h
123 10-06-2014 10:10:00 22.2 C 14.53 g/m*3 22.2 C 0 km/h
124 10-06-2014 10:15:00 22.6 C 15.27 g/m*3 22.6 C 1.6 km/h
125 10-06-2014 10:20:00 23.1 C 14.06 g/m*3 23.1 C 1.6 km/h
Sensor: Nr:Datum:Temp:Abs-Feuchte:Windchill:Wind:
Aussen-T/F 126 10-06-2014 10:25:00 23.7 C 14.33 g/m*3 23.7 C 1.6 km/h
127 10-06-2014 10:30:00 24.2 C 14.3 g/m*3 24.2 C 3.2 km/h
128 10-06-2014 10:35:00 24.6 C 14.4 g/m*3 24.6 C 4.8 km/h
129 10-06-2014 10:40:00 25 C 14.27 g/m*3 25 C 6.4 km/h
130 10-06-2014 10:45:00 25.4 C 14.36 g/m*3 25.4 C 8.1 km/h
131 10-06-2014 10:50:00 25.7 C 14.36 g/m*3 25.7 C 11.3 km/h
132 10-06-2014 10:55:00 25.9 C 14.04 g/m*3 25.9 C 6.4 km/h
133 10-06-2014 11:00:00 26 C 14.12 g/m*3 26 C 4.8 km/h
134 10-06-2014 11:05:00 25.9 C 14.04 g/m*3 25.9 C 3.2 km/h
135 10-06-2014 11:10:00 25.9 C 14.28 g/m*3 25.9 C 1.6 km/h
136 10-06-2014 11:15:00 25.8 C 14.69 g/m*3 25.8 C 1.6 km/h
137 10-06-2014 11:20:00 25.6 C 15.24 g/m*3 25.6 C 0 km/h
138 10-06-2014 11:25:00 25.2 C 15.83 g/m*3 25.2 C 0 km/h
139 10-06-2014 11:30:00 24.7 C 16.07 g/m*3 24.7 C 0 km/h
140 10-06-2014 11:35:00 24.3 C 15.93 g/m*3 24.3 C 0 km/h
141 10-06-2014 11:40:00 24.2 C 16.06 g/m*3 24.2 C 0 km/h
142 10-06-2014 11:45:00 24.4 C 15.58 g/m*3 24.4 C 0 km/h
143 10-06-2014 11:50:00 24.8 C 15.25 g/m*3 24.8 C 0 km/h
144 10-06-2014 11:55:00 25.2 C 16.06 g/m*3 25.2 C 1.6 km/h
145 10-06-2014 12:00:00 25 C 15.88 g/m*3 25 C 0 km/h
146 10-06-2014 12:05:00 25.1 C 16.2 g/m*3 25.1 C 3.2 km/h
147 10-06-2014 12:10:00 25.8 C 16.37 g/m*3 25.8 C 6.4 km/h
148 10-06-2014 12:15:00 26.7 C 15.69 g/m*3 26.7 C 11.3 km/h
149 10-06-2014 12:20:00 27.2 C 15.61 g/m*3 27.2 C 9.7 km/h
150 10-06-2014 12:25:00 27.6 C 16.49 g/m*3 27.6 C 9.7 km/h
Sensor: Nr:Datum:Temp:Abs-Feuchte:Windchill:Wind:
Aussen-T/F 151 10-06-2014 12:30:00 27.9 C 16.5 g/m*3 27.9 C 9.7 km/h
152 10-06-2014 12:35:00 28.1 C 16.13 g/m*3 28.1 C 11.3 km/h
153 10-06-2014 12:40:00 28.4 C 15.84 g/m*3 28.4 C 9.7 km/h
154 10-06-2014 12:45:00 28.7 C 16.11 g/m*3 28.7 C 11.3 km/h
155 10-06-2014 12:50:00 28.7 C 15.82 g/m*3 28.7 C 11.3 km/h
156 10-06-2014 12:55:00 28.9 C 16.85 g/m*3 28.9 C 11.3 km/h
157 10-06-2014 13:00:00 29.2 C 15.97 g/m*3 29.2 C 8.1 km/h
158 10-06-2014 13:05:00 29.4 C 16.44 g/m*3 29.4 C 8.1 km/h
159 10-06-2014 13:10:00 29.8 C 16.2 g/m*3 29.8 C 6.4 km/h
160 10-06-2014 13:15:00 30.2 C 16.86 g/m*3 30.2 C 6.4 km/h
161 10-06-2014 13:20:00 30.3 C 16.33 g/m*3 30.3 C 4.8 km/h
162 10-06-2014 13:25:00 30.7 C 16.69 g/m*3 30.7 C 6.4 km/h
163 10-06-2014 13:30:00 30.7 C 17.01 g/m*3 30.7 C 4.8 km/h
164 10-06-2014 13:35:00 30.6 C 16.6 g/m*3 30.6 C 3.2 km/h
165 10-06-2014 13:40:00 30.5 C 15.89 g/m*3 30.5 C 8.1 km/h
166 10-06-2014 13:45:00 30.6 C 16.29 g/m*3 30.6 C 4.8 km/h
167 10-06-2014 13:50:00 30.6 C 16.6 g/m*3 30.6 C 8.1 km/h
168 10-06-2014 13:55:00 30.7 C 16.06 g/m*3 30.7 C 8.1 km/h
169 10-06-2014 14:00:00 31.1 C 16.73 g/m*3 31.1 C 3.2 km/h
170 10-06-2014 14:05:00 31.3 C 16.91 g/m*3 31.3 C 4.8 km/h
171 10-06-2014 14:10:00 31.4 C 16.67 g/m*3 31.4 C 4.8 km/h
172 10-06-2014 14:15:00 31.4 C 16.35 g/m*3 31.4 C 6.4 km/h
173 10-06-2014 14:20:00 31.6 C 16.19 g/m*3 31.6 C 1.6 km/h
174 10-06-2014 14:25:00 31.7 C 15.95 g/m*3 31.7 C 4.8 km/h
175 10-06-2014 14:30:00 31.8 C 16.7 g/m*3 31.8 C 3.2 km/h
Sensor: Nr:Datum:Temp:Abs-Feuchte:Windchill:Wind:
Aussen-T/F 176 10-06-2014 14:35:00 32.2 C 16.04 g/m*3 32.2 C 3.2 km/h
177 10-06-2014 14:40:00 32.4 C 16.21 g/m*3 32.4 C 3.2 km/h
178 10-06-2014 14:45:00 32.2 C 15.7 g/m*3 32.2 C 4.8 km/h
179 10-06-2014 14:50:00 32.1 C 16.97 g/m*3 32.1 C 4.8 km/h
180 10-06-2014 14:55:00 32.3 C 15.78 g/m*3 32.3 C 6.4 km/h
181 10-06-2014 15:00:00 32.4 C 16.21 g/m*3 32.4 C 3.2 km/h
182 10-06-2014 15:05:00 32.7 C 15.42 g/m*3 32.7 C 4.8 km/h
183 10-06-2014 15:10:00 32.9 C 15.58 g/m*3 32.9 C 4.8 km/h
184 10-06-2014 15:15:00 33.1 C 15.39 g/m*3 33.1 C 4.8 km/h
185 10-06-2014 15:20:00 33.1 C 16.1 g/m*3 33.1 C 6.4 km/h
186 10-06-2014 15:25:00 33.1 C 15.39 g/m*3 33.1 C 6.4 km/h
187 10-06-2014 15:30:00 33.4 C 15.63 g/m*3 33.4 C 3.2 km/h
188 10-06-2014 15:35:00 33.6 C 15.43 g/m*3 33.6 C 4.8 km/h
189 10-06-2014 15:40:00 33.8 C 15.59 g/m*3 33.8 C 4.8 km/h
190 10-06-2014 15:45:00 34 C 14.26 g/m*3 34 C 8.1 km/h
191 10-06-2014 15:50:00 33.9 C 14.18 g/m*3 33.9 C 9.7 km/h
192 10-06-2014 15:55:00 33.5 C 14.25 g/m*3 33.5 C 4.8 km/h
193 10-06-2014 16:00:00 33.3 C 13.74 g/m*3 33.3 C 1.6 km/h
194 10-06-2014 16:05:00 33.6 C 15.06 g/m*3 33.6 C 4.8 km/h
195 10-06-2014 16:10:00 33.8 C 14.48 g/m*3 33.8 C 4.8 km/h
196 10-06-2014 16:15:00 34 C 15.01 g/m*3 34 C 8.1 km/h
197 10-06-2014 16:20:00 34.3 C 14.1 g/m*3 34.3 C 4.8 km/h
198 10-06-2014 16:25:00 34.6 C 14.71 g/m*3 34.6 C 6.4 km/h
199 10-06-2014 16:30:00 34.2 C 14.41 g/m*3 34.2 C 6.4 km/h
200 10-06-2014 16:35:00 34.1 C 14.71 g/m*3 34.1 C 4.8 km/h
Sensor: Nr:Datum:Temp:Abs-Feuchte:Windchill:Wind:
Aussen-T/F 201 10-06-2014 16:40:00 34.1 C 14.33 g/m*3 34.1 C 8.1 km/h
202 10-06-2014 16:45:00 34.1 C 15.09 g/m*3 34.1 C 8.1 km/h
203 10-06-2014 16:50:00 34.1 C 14.71 g/m*3 34.1 C 3.2 km/h
204 10-06-2014 16:55:00 34.1 C 14.33 g/m*3 34.1 C 4.8 km/h
205 10-06-2014 17:00:00 34.4 C 13.79 g/m*3 34.4 C 8.1 km/h
206 10-06-2014 17:05:00 34.6 C 13.94 g/m*3 34.6 C 6.4 km/h
207 10-06-2014 17:10:00 35.1 C 13.11 g/m*3 35.1 C 6.4 km/h
208 10-06-2014 17:15:00 34.6 C 12.39 g/m*3 34.6 C 4.8 km/h
209 10-06-2014 17:20:00 33.9 C 14.93 g/m*3 33.9 C 4.8 km/h
210 10-06-2014 17:25:00 32.8 C 16.2 g/m*3 32.8 C 3.2 km/h
211 10-06-2014 17:30:00 31.5 C 16.44 g/m*3 31.5 C 1.6 km/h
212 10-06-2014 17:35:00 30.7 C 15.43 g/m*3 30.7 C 6.4 km/h
213 10-06-2014 17:40:00 30.6 C 15.03 g/m*3 30.6 C 4.8 km/h
214 10-06-2014 17:45:00 30.6 C 15.66 g/m*3 30.6 C 3.2 km/h
215 10-06-2014 17:50:00 30.1 C 14.63 g/m*3 30.1 C 29 km/h
216 10-06-2014 17:55:00 29.9 C 14.78 g/m*3 29.9 C 11.3 km/h
217 10-06-2014 18:00:00 30.1 C 15.85 g/m*3 30.1 C 8.1 km/h
218 10-06-2014 18:05:00 30.4 C 16.73 g/m*3 30.4 C 24.1 km/h
219 10-06-2014 18:10:00 30.6 C 16.29 g/m*3 30.6 C 16.1 km/h
220 10-06-2014 18:15:00 30.5 C 16.51 g/m*3 30.5 C 16.1 km/h
221 10-06-2014 18:20:00 30.4 C 16.42 g/m*3 30.4 C 16.1 km/h
222 10-06-2014 18:25:00 30.2 C 16.55 g/m*3 30.2 C 24.1 km/h
223 10-06-2014 18:30:00 30.3 C 15.72 g/m*3 30.3 C 19.3 km/h
224 10-06-2014 18:35:00 29.7 C 15.22 g/m*3 29.7 C 14.5 km/h
225 10-06-2014 18:40:00 29.2 C 15.39 g/m*3 29.2 C 14.5 km/h
Sensor: Nr:Datum:Temp:Abs-Feuchte:Windchill:Wind:
Aussen-T/F 226 10-06-2014 18:45:00 28.9 C 15.43 g/m*3 28.9 C 12.9 km/h
227 10-06-2014 18:50:00 28.8 C 14.49 g/m*3 28.8 C 12.9 km/h
228 10-06-2014 18:55:00 28.6 C 14.33 g/m*3 28.6 C 11.3 km/h
229 10-06-2014 19:00:00 28.3 C 15.2 g/m*3 28.3 C 6.4 km/h
230 10-06-2014 19:05:00 27.9 C 14.87 g/m*3 27.9 C 9.7 km/h
231 10-06-2014 19:10:00 27.8 C 15.33 g/m*3 27.8 C 6.4 km/h
232 10-06-2014 19:15:00 27.8 C 15.6 g/m*3 27.8 C 4.8 km/h
233 10-06-2014 19:20:00 27.8 C 15.87 g/m*3 27.8 C 3.2 km/h
234 10-06-2014 19:25:00 27.7 C 16.05 g/m*3 27.7 C 8.1 km/h
235 10-06-2014 19:30:00 27.9 C 15.96 g/m*3 27.9 C 16.1 km/h
236 10-06-2014 19:35:00 27.9 C 15.69 g/m*3 27.9 C 19.3 km/h
237 10-06-2014 19:40:00 27.8 C 15.33 g/m*3 27.8 C 14.5 km/h
238 10-06-2014 19:45:00 27.7 C 15.78 g/m*3 27.7 C 9.7 km/h
239 10-06-2014 19:50:00 27.8 C 15.6 g/m*3 27.8 C 8.1 km/h
240 10-06-2014 19:55:00 27.7 C 15.51 g/m*3 27.7 C 11.3 km/h
241 10-06-2014 20:00:00 27.4 C 15.52 g/m*3 27.4 C 9.7 km/h
242 10-06-2014 20:05:00 27.2 C 15.35 g/m*3 27.2 C 6.4 km/h
243 10-06-2014 20:10:00 26.8 C 15.27 g/m*3 26.8 C 12.9 km/h
244 10-06-2014 20:15:00 26.7 C 15.44 g/m*3 26.7 C 9.7 km/h
245 10-06-2014 20:20:00 26.5 C 15.52 g/m*3 26.5 C 11.3 km/h
246 10-06-2014 20:25:00 26.4 C 15.43 g/m*3 26.4 C 4.8 km/h
247 10-06-2014 20:30:00 26.3 C 15.6 g/m*3 26.3 C 8.1 km/h
248 10-06-2014 20:35:00 26.2 C 15.51 g/m*3 26.2 C 6.4 km/h
249 10-06-2014 20:40:00 26.1 C 15.67 g/m*3 26.1 C 6.4 km/h
250 10-06-2014 20:45:00 25.9 C 16.46 g/m*3 25.9 C 4.8 km/h
Sensor: Nr:Datum:Temp:Abs-Feuchte:Windchill:Wind:
Aussen-T/F 251 10-06-2014 20:50:00 25.7 C 16.52 g/m*3 25.7 C 1.6 km/h
252 10-06-2014 20:55:00 25.2 C 16.99 g/m*3 25.2 C 4.8 km/h
253 10-06-2014 21:00:00 24.6 C 16.66 g/m*3 24.6 C 3.2 km/h
254 10-06-2014 21:05:00 24.4 C 16.02 g/m*3 24.4 C 8.1 km/h
255 10-06-2014 21:10:00 24.4 C 16.69 g/m*3 24.4 C 6.4 km/h
256 10-06-2014 21:15:00 24.2 C 16.28 g/m*3 24.2 C 6.4 km/h
257 10-06-2014 21:20:00 24.1 C 16.85 g/m*3 24.1 C 4.8 km/h
258 10-06-2014 21:25:00 23.9 C 16.66 g/m*3 23.9 C 3.2 km/h
259 10-06-2014 21:30:00 23.7 C 16.68 g/m*3 23.7 C 1.6 km/h
260 10-06-2014 21:35:00 23.5 C 16.5 g/m*3 23.5 C 0 km/h
261 10-06-2014 21:40:00 23.4 C 16.61 g/m*3 23.4 C 1.6 km/h
262 10-06-2014 21:45:00 23.3 C 16.52 g/m*3 23.3 C 1.6 km/h
263 10-06-2014 21:50:00 23.3 C 16.52 g/m*3 23.3 C 0 km/h
264 10-06-2014 21:55:00 23.1 C 16.54 g/m*3 23.1 C 0 km/h
265 10-06-2014 22:00:00 23 C 16.44 g/m*3 23 C 0 km/h
266 10-06-2014 22:05:00 22.8 C 16.26 g/m*3 22.8 C 1.6 km/h
267 10-06-2014 22:10:00 22.7 C 16.37 g/m*3 22.7 C 1.6 km/h
268 10-06-2014 22:15:00 22.6 C 16.27 g/m*3 22.6 C 1.6 km/h
269 10-06-2014 22:20:00 22.4 C 16.09 g/m*3 22.4 C 1.6 km/h
270 10-06-2014 22:25:00 22.3 C 15.99 g/m*3 22.3 C 0 km/h
271 10-06-2014 22:30:00 22.2 C 15.9 g/m*3 22.2 C 0 km/h
272 10-06-2014 22:35:00 22.1 C 15.81 g/m*3 22.1 C 0 km/h
273 10-06-2014 22:40:00 22.1 C 15.81 g/m*3 22.1 C 1.6 km/h
274 10-06-2014 22:45:00 22.1 C 15.81 g/m*3 22.1 C 0 km/h
275 10-06-2014 22:50:00 22.1 C 15.81 g/m*3 22.1 C 0 km/h
Sensor: Nr:Datum:Temp:Abs-Feuchte:Windchill:Wind:
Aussen-T/F 276 10-06-2014 22:55:00 22 C 15.91 g/m*3 22 C 0 km/h
277 10-06-2014 23:00:00 21.9 C 15.82 g/m*3 21.9 C 0 km/h
278 10-06-2014 23:05:00 21.8 C 15.73 g/m*3 21.8 C 0 km/h
279 10-06-2014 23:10:00 21.8 C 15.73 g/m*3 21.8 C 0 km/h
280 10-06-2014 23:15:00 21.7 C 15.64 g/m*3 21.7 C 0 km/h
281 10-06-2014 23:20:00 21.6 C 15.74 g/m*3 21.6 C 0 km/h
282 10-06-2014 23:25:00 21.4 C 15.75 g/m*3 21.4 C 0 km/h
283 10-06-2014 23:30:00 21.4 C 15.75 g/m*3 21.4 C 0 km/h
284 10-06-2014 23:35:00 21.3 C 15.66 g/m*3 21.3 C 0 km/h
285 10-06-2014 23:40:00 21.2 C 15.57 g/m*3 21.2 C 0 km/h
286 10-06-2014 23:45:00 21.2 C 15.75 g/m*3 21.2 C 0 km/h
287 10-06-2014 23:50:00 21.2 C 15.75 g/m*3 21.2 C 0 km/h
288 10-06-2014 23:55:00 21.1 C 15.66 g/m*3 21.1 C 0 km/h
289 11-06-2014 00:00:00 20.9 C 15.48 g/m*3 20.9 C 0 km/h
290 11-06-2014 00:05:00 20.7 C 15.48 g/m*3 20.7 C 0 km/h
291 11-06-2014 00:10:00 20.6 C 15.57 g/m*3 20.6 C 0 km/h
292 11-06-2014 00:15:00 20.5 C 15.48 g/m*3 20.5 C 0 km/h
293 11-06-2014 00:20:00 20.4 C 15.57 g/m*3 20.4 C 0 km/h
294 11-06-2014 00:25:00 20.4 C 15.57 g/m*3 20.4 C 0 km/h
295 11-06-2014 00:30:00 20.3 C 15.48 g/m*3 20.3 C 0 km/h
296 11-06-2014 00:35:00 20.3 C 15.65 g/m*3 20.3 C 0 km/h
297 11-06-2014 00:40:00 20.2 C 15.56 g/m*3 20.2 C 0 km/h
298 11-06-2014 00:45:00 20.1 C 15.47 g/m*3 20.1 C 0 km/h
299 11-06-2014 00:50:00 20 C 15.38 g/m*3 20 C 0 km/h
300 11-06-2014 00:55:00 19.9 C 15.46 g/m*3 19.9 C 0 km/h
Sensor: Nr:Datum:Temp:Abs-Feuchte:Windchill:Wind:
Aussen-T/F 301 11-06-2014 01:00:00 19.9 C 15.46 g/m*3 19.9 C 0 km/h
302 11-06-2014 01:05:00 19.9 C 15.46 g/m*3 19.9 C 0 km/h
303 11-06-2014 01:10:00 19.8 C 15.37 g/m*3 19.8 C 0 km/h
304 11-06-2014 01:15:00 19.8 C 15.54 g/m*3 19.8 C 0 km/h
305 11-06-2014 01:20:00 19.8 C 15.54 g/m*3 19.8 C 0 km/h
306 11-06-2014 01:25:00 19.7 C 15.28 g/m*3 19.7 C 0 km/h
307 11-06-2014 01:30:00 19.7 C 15.45 g/m*3 19.7 C 0 km/h
308 11-06-2014 01:35:00 19.6 C 15.36 g/m*3 19.6 C 0 km/h
309 11-06-2014 01:40:00 19.6 C 15.36 g/m*3 19.6 C 0 km/h
310 11-06-2014 01:45:00 19.5 C 15.27 g/m*3 19.5 C 0 km/h
311 11-06-2014 01:50:00 19.5 C 15.44 g/m*3 19.5 C 0 km/h
312 11-06-2014 01:55:00 19.4 C 15.35 g/m*3 19.4 C 0 km/h
313 11-06-2014 02:00:00 19.4 C 15.35 g/m*3 19.4 C 0 km/h
314 11-06-2014 02:05:00 19.4 C 15.35 g/m*3 19.4 C 3.2 km/h
315 11-06-2014 02:10:00 19.6 C 15.36 g/m*3 19.6 C 3.2 km/h
316 11-06-2014 02:15:00 19.8 C 15.37 g/m*3 19.8 C 4.8 km/h
317 11-06-2014 02:20:00 20.2 C 15.39 g/m*3 20.2 C 6.4 km/h
318 11-06-2014 02:25:00 20.4 C 15.39 g/m*3 20.4 C 1.6 km/h
319 11-06-2014 02:30:00 20.5 C 15.48 g/m*3 20.5 C 4.8 km/h
320 11-06-2014 02:35:00 20.7 C 15.48 g/m*3 20.7 C 8.1 km/h
321 11-06-2014 02:40:00 20.7 C 15.3 g/m*3 20.7 C 9.7 km/h
322 11-06-2014 02:45:00 20.7 C 15.3 g/m*3 20.7 C 14.5 km/h
323 11-06-2014 02:50:00 20.6 C 15.21 g/m*3 20.6 C 11.3 km/h
324 11-06-2014 02:55:00 20.6 C 15.03 g/m*3 20.6 C 6.4 km/h
325 11-06-2014 03:00:00 20.5 C 14.95 g/m*3 20.5 C 6.4 km/h
Sensor: Nr:Datum:Temp:Abs-Feuchte:Windchill:Wind:
Aussen-T/F 326 11-06-2014 03:05:00 20.4 C 14.86 g/m*3 20.4 C 4.8 km/h
327 11-06-2014 03:10:00 20.3 C 14.77 g/m*3 20.3 C 1.6 km/h
328 11-06-2014 03:15:00 20.2 C 14.69 g/m*3 20.2 C 3.2 km/h
329 11-06-2014 03:20:00 20.2 C 14.69 g/m*3 20.2 C 1.6 km/h
330 11-06-2014 03:25:00 20.1 C 14.6 g/m*3 20.1 C 4.8 km/h
331 11-06-2014 03:30:00 20.2 C 14.69 g/m*3 20.2 C 3.2 km/h
332 11-06-2014 03:35:00 20.2 C 14.69 g/m*3 20.2 C 0 km/h
333 11-06-2014 03:40:00 20.2 C 14.69 g/m*3 20.2 C 1.6 km/h
334 11-06-2014 03:45:00 20.1 C 14.6 g/m*3 20.1 C 3.2 km/h
335 11-06-2014 03:50:00 20.1 C 14.43 g/m*3 20.1 C 1.6 km/h
336 11-06-2014 03:55:00 20.2 C 14.51 g/m*3 20.2 C 1.6 km/h
337 11-06-2014 04:00:00 20.2 C 14.51 g/m*3 20.2 C 0 km/h
338 11-06-2014 04:05:00 20.2 C 14.86 g/m*3 20.2 C 1.6 km/h
339 11-06-2014 04:10:00 20.1 C 14.95 g/m*3 20.1 C 0 km/h
340 11-06-2014 04:15:00 19.8 C 14.69 g/m*3 19.8 C 0 km/h
341 11-06-2014 04:20:00 19.8 C 14.69 g/m*3 19.8 C 0 km/h
342 11-06-2014 05:20:00 18.4 C 14.63 g/m*3 18.4 C 12.9 km/h
343 11-06-2014 05:25:00 18.8 C 14.82 g/m*3 18.8 C 14.5 km/h
344 11-06-2014 05:30:00 18.9 C 14.74 g/m*3 18.9 C 9.7 km/h
345 11-06-2014 05:35:00 19.1 C 14.75 g/m*3 19.1 C 9.7 km/h
346 11-06-2014 05:40:00 19.1 C 14.75 g/m*3 19.1 C 8.1 km/h
347 11-06-2014 05:45:00 19.1 C 14.75 g/m*3 19.1 C 6.4 km/h
348 11-06-2014 05:50:00 18.7 C 14.57 g/m*3 18.7 C 17.7 km/h
349 11-06-2014 05:55:00 18.7 C 14.57 g/m*3 18.7 C 8.1 km/h
350 11-06-2014 06:00:00 18.4 C 14.47 g/m*3 18.4 C 8.1 km/h
Sensor: Nr:Datum:Temp:Abs-Feuchte:Windchill:Wind:
Aussen-T/F 351 11-06-2014 06:05:00 18.3 C 14.38 g/m*3 18.3 C 4.8 km/h
352 11-06-2014 06:10:00 18.1 C 14.37 g/m*3 18.1 C 3.2 km/h
353 11-06-2014 06:15:00 18 C 14.44 g/m*3 18 C 1.6 km/h
354 11-06-2014 06:20:00 17.9 C 14.35 g/m*3 17.9 C 0 km/h
355 11-06-2014 06:25:00 17.9 C 14.35 g/m*3 17.9 C 0 km/h
356 11-06-2014 06:30:00 17.9 C 14.5 g/m*3 17.9 C 1.6 km/h
357 11-06-2014 06:35:00 17.9 C 14.5 g/m*3 17.9 C 0 km/h
358 11-06-2014 06:40:00 17.8 C 14.42 g/m*3 17.8 C 0 km/h
359 11-06-2014 06:45:00 17.9 C 14.5 g/m*3 17.9 C 0 km/h
360 11-06-2014 06:50:00 17.9 C 14.5 g/m*3 17.9 C 0 km/h
361 11-06-2014 06:55:00 17.9 C 14.5 g/m*3 17.9 C 0 km/h
362 11-06-2014 07:00:00 17.8 C 14.42 g/m*3 17.8 C 0 km/h
363 11-06-2014 07:05:00 17.8 C 14.42 g/m*3 17.8 C 0 km/h
364 11-06-2014 07:10:00 17.8 C 14.57 g/m*3 17.8 C 0 km/h
365 11-06-2014 07:15:00 17.8 C 14.57 g/m*3 17.8 C 0 km/h
366 11-06-2014 07:20:00 17.8 C 14.57 g/m*3 17.8 C 0 km/h
367 11-06-2014 07:40:00 17.9 C 14.66 g/m*3 17.9 C 0 km/h
368 11-06-2014 07:45:00 17.9 C 14.66 g/m*3 17.9 C 1.6 km/h
369 11-06-2014 07:50:00 17.8 C 14.57 g/m*3 17.8 C 0 km/h
370 11-06-2014 07:55:00 17.9 C 14.66 g/m*3 17.9 C 0 km/h
371 11-06-2014 08:00:00 17.9 C 14.66 g/m*3 17.9 C 0 km/h
372 11-06-2014 08:05:00 18 C 14.9 g/m*3 18 C 0 km/h
373 11-06-2014 08:10:00 18 C 14.9 g/m*3 18 C 1.6 km/h
374 11-06-2014 08:15:00 18.1 C 14.99 g/m*3 18.1 C 3.2 km/h
375 11-06-2014 08:20:00 18.1 C 14.99 g/m*3 18.1 C 0 km/h
Sensor: Nr:Datum:Temp:Abs-Feuchte:Windchill:Wind:
Aussen-T/F 376 11-06-2014 08:25:00 18.1 C 14.99 g/m*3 18.1 C 1.6 km/h
377 11-06-2014 08:30:00 18.2 C 15.08 g/m*3 18.2 C 1.6 km/h
378 11-06-2014 08:35:00 18.3 C 15.01 g/m*3 18.3 C 1.6 km/h
379 11-06-2014 08:40:00 18.3 C 15.01 g/m*3 18.3 C 1.6 km/h
380 11-06-2014 08:45:00 18.6 C 15.44 g/m*3 18.6 C 1.6 km/h
381 11-06-2014 08:50:00 18.8 C 15.62 g/m*3 18.8 C 3.2 km/h
382 11-06-2014 08:55:00 19 C 15.81 g/m*3 19 C 3.2 km/h
383 11-06-2014 09:00:00 18.9 C 15.55 g/m*3 18.9 C 0 km/h
384 11-06-2014 09:05:00 19 C 15.64 g/m*3 19 C 1.6 km/h
385 11-06-2014 09:10:00 19 C 15.64 g/m*3 19 C 3.2 km/h
386 11-06-2014 09:15:00 19.1 C 15.74 g/m*3 19.1 C 0 km/h
387 11-06-2014 09:20:00 19.1 C 15.41 g/m*3 19.1 C 3.2 km/h
388 11-06-2014 09:25:00 19.1 C 15.41 g/m*3 19.1 C 1.6 km/h
389 11-06-2014 09:30:00 19.3 C 15.76 g/m*3 19.3 C 3.2 km/h
390 11-06-2014 09:35:00 19.3 C 15.59 g/m*3 19.3 C 8.1 km/h
391 11-06-2014 09:40:00 19.4 C 15.52 g/m*3 19.4 C 6.4 km/h
392 11-06-2014 09:45:00 19.6 C 15.7 g/m*3 19.6 C 9.7 km/h
393 11-06-2014 09:50:00 19.6 C 15.36 g/m*3 19.6 C 6.4 km/h
394 11-06-2014 09:55:00 19.6 C 15.19 g/m*3 19.6 C 3.2 km/h
395 11-06-2014 10:00:00 19.6 C 15.19 g/m*3 19.6 C 1.6 km/h
396 11-06-2014 10:05:00 19.6 C 15.36 g/m*3 19.6 C 11.3 km/h
397 11-06-2014 10:10:00 19.2 C 14.68 g/m*3 19.2 C 12.9 km/h
398 11-06-2014 10:15:00 18.8 C 14.33 g/m*3 18.8 C 17.7 km/h
399 11-06-2014 10:20:00 18.3 C 13.92 g/m*3 18.3 C 14.5 km/h
400 11-06-2014 10:25:00 18.2 C 13.99 g/m*3 18.2 C 12.9 km/h
Sensor: Nr:Datum:Temp:Abs-Feuchte:Windchill:Wind:
Aussen-T/F 401 11-06-2014 10:30:00 18 C 13.82 g/m*3 18 C 11.3 km/h
402 11-06-2014 10:35:00 18 C 13.82 g/m*3 18 C 14.5 km/h
403 11-06-2014 10:40:00 17.9 C 13.74 g/m*3 17.9 C 12.9 km/h
404 11-06-2014 10:45:00 17.9 C 13.89 g/m*3 17.9 C 11.3 km/h
405 11-06-2014 10:50:00 17.9 C 13.59 g/m*3 17.9 C 17.7 km/h
406 11-06-2014 10:55:00 17.8 C 13.66 g/m*3 17.8 C 14.5 km/h
407 11-06-2014 11:00:00 17.8 C 13.66 g/m*3 17.8 C 9.7 km/h
408 11-06-2014 11:05:00 17.8 C 13.51 g/m*3 17.8 C 14.5 km/h
409 11-06-2014 11:10:00 17.8 C 13.51 g/m*3 17.8 C 8.1 km/h
410 11-06-2014 11:15:00 17.8 C 13.51 g/m*3 17.8 C 6.4 km/h
411 11-06-2014 11:20:00 17.8 C 13.66 g/m*3 17.8 C 17.7 km/h
412 11-06-2014 11:25:00 17.7 C 13.43 g/m*3 17.7 C 8.1 km/h
413 11-06-2014 11:30:00 17.7 C 13.43 g/m*3 17.7 C 14.5 km/h
414 11-06-2014 11:35:00 17.7 C 13.43 g/m*3 17.7 C 14.5 km/h
415 11-06-2014 11:40:00 17.7 C 13.43 g/m*3 17.7 C 14.5 km/h
416 11-06-2014 11:45:00 17.7 C 13.43 g/m*3 17.7 C 8.1 km/h
417 11-06-2014 11:50:00 17.8 C 13.51 g/m*3 17.8 C 6.4 km/h
418 11-06-2014 11:55:00 17.8 C 13.51 g/m*3 17.8 C 8.1 km/h
419 11-06-2014 12:00:00 17.8 C 13.51 g/m*3 17.8 C 8.1 km/h
420 11-06-2014 12:05:00 18.2 C 13.83 g/m*3 18.2 C 11.3 km/h
421 11-06-2014 12:10:00 18.3 C 13.92 g/m*3 18.3 C 8.1 km/h
422 11-06-2014 12:15:00 18.4 C 13.68 g/m*3 18.4 C 11.3 km/h
423 11-06-2014 12:20:00 18.5 C 13.45 g/m*3 18.5 C 9.7 km/h
424 11-06-2014 12:25:00 18.6 C 13.85 g/m*3 18.6 C 9.7 km/h
425 11-06-2014 12:30:00 18.7 C 13.61 g/m*3 18.7 C 12.9 km/h
Sensor: Nr:Datum:Temp:Abs-Feuchte:Windchill:Wind:
Aussen-T/F 426 11-06-2014 12:35:00 18.9 C 13.77 g/m*3 18.9 C 9.7 km/h
427 11-06-2014 12:40:00 18.9 C 13.61 g/m*3 18.9 C 8.1 km/h
428 11-06-2014 12:45:00 18.9 C 13.61 g/m*3 18.9 C 11.3 km/h
429 11-06-2014 12:50:00 19.1 C 13.93 g/m*3 19.1 C 6.4 km/h
430 11-06-2014 12:55:00 19.2 C 13.69 g/m*3 19.2 C 8.1 km/h
431 11-06-2014 13:00:00 19.2 C 13.85 g/m*3 19.2 C 16.1 km/h
432 11-06-2014 13:05:00 19.3 C 13.6 g/m*3 19.3 C 9.7 km/h
433 11-06-2014 13:10:00 19.3 C 13.44 g/m*3 19.3 C 11.3 km/h
434 11-06-2014 13:15:00 19.3 C 13.6 g/m*3 19.3 C 4.8 km/h
435 11-06-2014 13:20:00 19.4 C 13.68 g/m*3 19.4 C 6.4 km/h
436 11-06-2014 13:25:00 19.4 C 13.68 g/m*3 19.4 C 9.7 km/h
437 11-06-2014 13:30:00 19.4 C 13.85 g/m*3 19.4 C 6.4 km/h
438 11-06-2014 13:35:00 19.6 C 13.84 g/m*3 19.6 C 6.4 km/h
439 11-06-2014 13:40:00 19.6 C 13.84 g/m*3 19.6 C 4.8 km/h
440 11-06-2014 13:45:00 19.7 C 14.09 g/m*3 19.7 C 4.8 km/h
441 11-06-2014 13:50:00 19.9 C 14.26 g/m*3 19.9 C 6.4 km/h
442 11-06-2014 13:55:00 20.2 C 14.34 g/m*3 20.2 C 6.4 km/h
443 11-06-2014 14:00:00 20.3 C 14.25 g/m*3 20.3 C 9.7 km/h
444 11-06-2014 14:05:00 20.4 C 14.33 g/m*3 20.4 C 6.4 km/h
445 11-06-2014 14:10:00 20.5 C 14.41 g/m*3 20.5 C 8.1 km/h
446 11-06-2014 14:15:00 20.6 C 14.32 g/m*3 20.6 C 6.4 km/h
447 11-06-2014 14:20:00 20.6 C 14.32 g/m*3 20.6 C 4.8 km/h
448 11-06-2014 14:25:00 20.7 C 14.22 g/m*3 20.7 C 8.1 km/h
449 11-06-2014 14:30:00 20.7 C 14.22 g/m*3 20.7 C 4.8 km/h
450 11-06-2014 14:35:00 20.7 C 14.58 g/m*3 20.7 C 11.3 km/h
Sensor: Nr:Datum:Temp:Abs-Feuchte:Windchill:Wind:
Aussen-T/F 451 11-06-2014 14:40:00 20.7 C 14.22 g/m*3 20.7 C 9.7 km/h
452 11-06-2014 14:45:00 20.9 C 14.57 g/m*3 20.9 C 9.7 km/h
453 11-06-2014 14:50:00 21.1 C 14.19 g/m*3 21.1 C 8.1 km/h
454 11-06-2014 14:55:00 21.2 C 14.27 g/m*3 21.2 C 4.8 km/h
455 11-06-2014 15:00:00 21.3 C 14.35 g/m*3 21.3 C 8.1 km/h
456 11-06-2014 15:05:00 21.4 C 14.44 g/m*3 21.4 C 8.1 km/h
457 11-06-2014 15:10:00 21.5 C 14.52 g/m*3 21.5 C 8.1 km/h
458 11-06-2014 15:15:00 21.6 C 14.22 g/m*3 21.6 C 4.8 km/h
459 11-06-2014 15:20:00 21.7 C 14.31 g/m*3 21.7 C 6.4 km/h
460 11-06-2014 15:25:00 21.9 C 14.47 g/m*3 21.9 C 8.1 km/h
461 11-06-2014 15:30:00 22 C 14.17 g/m*3 22 C 6.4 km/h
462 11-06-2014 15:35:00 22.2 C 14.14 g/m*3 22.2 C 6.4 km/h
463 11-06-2014 15:40:00 22.2 C 14.33 g/m*3 22.2 C 8.1 km/h
464 11-06-2014 15:45:00 22.2 C 14.33 g/m*3 22.2 C 4.8 km/h
465 11-06-2014 15:50:00 22.1 C 14.05 g/m*3 22.1 C 3.2 km/h
466 11-06-2014 15:55:00 22.1 C 14.25 g/m*3 22.1 C 3.2 km/h
467 11-06-2014 16:00:00 22.5 C 14.78 g/m*3 22.5 C 8.1 km/h
468 11-06-2014 16:05:00 22.9 C 14.31 g/m*3 22.9 C 8.1 km/h
469 11-06-2014 16:10:00 23.1 C 14.68 g/m*3 23.1 C 4.8 km/h
470 11-06-2014 16:15:00 23.1 C 14.47 g/m*3 23.1 C 4.8 km/h
471 11-06-2014 16:20:00 23.1 C 14.47 g/m*3 23.1 C 8.1 km/h
472 11-06-2014 16:25:00 23.2 C 14.34 g/m*3 23.2 C 4.8 km/h
473 11-06-2014 16:30:00 23.3 C 14.64 g/m*3 23.3 C 6.4 km/h
474 11-06-2014 16:35:00 23.1 C 14.06 g/m*3 23.1 C 4.8 km/h
475 11-06-2014 16:40:00 23.3 C 14.43 g/m*3 23.3 C 9.7 km/h
Sensor: Nr:Datum:Temp:Abs-Feuchte:Windchill:Wind:
Aussen-T/F 476 11-06-2014 16:45:00 23.8 C 14.63 g/m*3 23.8 C 8.1 km/h
477 11-06-2014 16:50:00 24.1 C 14.66 g/m*3 24.1 C 11.3 km/h
478 11-06-2014 16:55:00 24.1 C 14.66 g/m*3 24.1 C 6.4 km/h
479 11-06-2014 17:00:00 24.3 C 14.16 g/m*3 24.3 C 3.2 km/h
480 11-06-2014 17:05:00 24.4 C 14.69 g/m*3 24.4 C 6.4 km/h
481 11-06-2014 17:10:00 24.4 C 14.02 g/m*3 24.4 C 12.9 km/h
482 11-06-2014 17:15:00 24.3 C 14.61 g/m*3 24.3 C 6.4 km/h
483 11-06-2014 17:20:00 24.2 C 13.86 g/m*3 24.2 C 8.1 km/h
484 11-06-2014 17:25:00 24.3 C 13.94 g/m*3 24.3 C 8.1 km/h
485 11-06-2014 17:30:00 24.3 C 13.72 g/m*3 24.3 C 6.4 km/h
486 11-06-2014 17:35:00 24.3 C 13.94 g/m*3 24.3 C 6.4 km/h
487 11-06-2014 17:40:00 24.2 C 13.86 g/m*3 24.2 C 8.1 km/h
488 11-06-2014 17:45:00 24.1 C 14 g/m*3 24.1 C 11.3 km/h
489 11-06-2014 17:50:00 23.9 C 14.06 g/m*3 23.9 C 9.7 km/h
490 11-06-2014 17:55:00 24 C 13.92 g/m*3 24 C 6.4 km/h
491 11-06-2014 18:00:00 24.2 C 13.42 g/m*3 24.2 C 9.7 km/h
492 11-06-2014 18:05:00 24.2 C 13.42 g/m*3 24.2 C 11.3 km/h
493 11-06-2014 18:10:00 24 C 13.71 g/m*3 24 C 9.7 km/h
494 11-06-2014 18:15:00 24 C 13.05 g/m*3 24 C 8.1 km/h
495 11-06-2014 18:20:00 24.2 C 12.76 g/m*3 24.2 C 6.4 km/h
496 11-06-2014 18:25:00 24.4 C 12.91 g/m*3 24.4 C 9.7 km/h
497 11-06-2014 18:30:00 24.4 C 13.35 g/m*3 24.4 C 9.7 km/h
498 11-06-2014 18:35:00 24.7 C 13.81 g/m*3 24.7 C 9.7 km/h
499 11-06-2014 18:40:00 24.8 C 12.75 g/m*3 24.8 C 6.4 km/h
500 11-06-2014 18:45:00 24.7 C 13.35 g/m*3 24.7 C 9.7 km/h
Sensor: Nr:Datum:Temp:Abs-Feuchte:Windchill:Wind:
Aussen-T/F 501 11-06-2014 18:50:00 24.6 C 13.05 g/m*3 24.6 C 8.1 km/h
502 11-06-2014 18:55:00 24.7 C 12.9 g/m*3 24.7 C 9.7 km/h
503 11-06-2014 19:00:00 24.8 C 12.75 g/m*3 24.8 C 9.7 km/h
504 11-06-2014 19:05:00 24.7 C 12.9 g/m*3 24.7 C 9.7 km/h
505 11-06-2014 19:10:00 24.8 C 12.97 g/m*3 24.8 C 11.3 km/h
506 11-06-2014 19:15:00 24.8 C 12.97 g/m*3 24.8 C 8.1 km/h
507 11-06-2014 19:20:00 24.6 C 12.6 g/m*3 24.6 C 9.7 km/h
508 11-06-2014 19:25:00 24.3 C 12.17 g/m*3 24.3 C 8.1 km/h
509 11-06-2014 19:30:00 24.1 C 12.03 g/m*3 24.1 C 9.7 km/h
510 11-06-2014 19:35:00 23.8 C 11.83 g/m*3 23.8 C 9.7 km/h
511 11-06-2014 19:40:00 23.6 C 12.12 g/m*3 23.6 C 9.7 km/h
512 11-06-2014 19:45:00 23.3 C 12.13 g/m*3 23.3 C 11.3 km/h
513 11-06-2014 19:50:00 23.1 C 11.58 g/m*3 23.1 C 9.7 km/h
514 11-06-2014 19:55:00 22.9 C 11.04 g/m*3 22.9 C 11.3 km/h
515 11-06-2014 20:00:00 22.7 C 11.31 g/m*3 22.7 C 8.1 km/h
516 11-06-2014 20:05:00 22.7 C 11.52 g/m*3 22.7 C 11.3 km/h
517 11-06-2014 20:10:00 22.6 C 11.25 g/m*3 22.6 C 8.1 km/h
518 11-06-2014 20:15:00 22.4 C 11.12 g/m*3 22.4 C 8.1 km/h
519 11-06-2014 20:20:00 22.3 C 11.45 g/m*3 22.3 C 8.1 km/h
520 11-06-2014 20:25:00 22.2 C 11.19 g/m*3 22.2 C 9.7 km/h
521 11-06-2014 20:30:00 22.1 C 11.32 g/m*3 22.1 C 6.4 km/h
522 11-06-2014 20:35:00 22.1 C 11.32 g/m*3 22.1 C 4.8 km/h
523 11-06-2014 20:40:00 22.1 C 11.32 g/m*3 22.1 C 3.2 km/h
524 11-06-2014 20:45:00 22 C 11.45 g/m*3 22 C 3.2 km/h
525 11-06-2014 20:50:00 21.9 C 11.39 g/m*3 21.9 C 3.2 km/h
Sensor: Nr:Datum:Temp:Abs-Feuchte:Windchill:Wind:
Aussen-T/F 526 11-06-2014 20:55:00 21.8 C 12.66 g/m*3 21.8 C 1.6 km/h
527 11-06-2014 21:00:00 21.4 C 11.81 g/m*3 21.4 C 4.8 km/h
528 11-06-2014 21:05:00 21.2 C 12.23 g/m*3 21.2 C 3.2 km/h
529 11-06-2014 21:10:00 20.9 C 12.2 g/m*3 20.9 C 0 km/h
530 11-06-2014 21:15:00 20.6 C 12.53 g/m*3 20.6 C 1.6 km/h
531 11-06-2014 21:20:00 20.2 C 12.59 g/m*3 20.2 C 0 km/h
532 11-06-2014 21:25:00 19.8 C 12.81 g/m*3 19.8 C 1.6 km/h
533 11-06-2014 21:30:00 19.4 C 12.68 g/m*3 19.4 C 0 km/h
534 11-06-2014 21:35:00 19.1 C 12.62 g/m*3 19.1 C 0 km/h
535 11-06-2014 21:40:00 18.8 C 12.56 g/m*3 18.8 C 0 km/h
536 11-06-2014 21:45:00 18.7 C 12.65 g/m*3 18.7 C 0 km/h
537 11-06-2014 21:50:00 18.5 C 12.82 g/m*3 18.5 C 0 km/h
538 11-06-2014 21:55:00 18.3 C 12.98 g/m*3 18.3 C 1.6 km/h
539 11-06-2014 22:00:00 18.2 C 12.75 g/m*3 18.2 C 1.6 km/h
540 11-06-2014 22:05:00 17.9 C 12.52 g/m*3 17.9 C 0 km/h
541 11-06-2014 22:10:00 17.8 C 12.45 g/m*3 17.8 C 0 km/h
542 11-06-2014 22:15:00 17.7 C 12.52 g/m*3 17.7 C 0 km/h
543 11-06-2014 22:20:00 17.5 C 12.52 g/m*3 17.5 C 0 km/h
544 11-06-2014 22:25:00 17.4 C 12.6 g/m*3 17.4 C 1.6 km/h
545 11-06-2014 22:30:00 17.3 C 12.52 g/m*3 17.3 C 0 km/h
546 11-06-2014 22:35:00 17.2 C 12.45 g/m*3 17.2 C 0 km/h
547 11-06-2014 22:40:00 17.1 C 12.52 g/m*3 17.1 C 1.6 km/h
548 11-06-2014 22:45:00 16.9 C 12.37 g/m*3 16.9 C 0 km/h
549 11-06-2014 22:50:00 16.9 C 12.37 g/m*3 16.9 C 1.6 km/h
550 11-06-2014 22:55:00 16.8 C 12.3 g/m*3 16.8 C 0 km/h
Sensor: Nr:Datum:Temp:Abs-Feuchte:Windchill:Wind:
Aussen-T/F 551 11-06-2014 23:00:00 16.8 C 12.3 g/m*3 16.8 C 1.6 km/h
552 11-06-2014 23:05:00 16.8 C 12.44 g/m*3 16.8 C 1.6 km/h
553 11-06-2014 23:10:00 16.7 C 12.36 g/m*3 16.7 C 0 km/h
554 11-06-2014 23:15:00 16.7 C 12.36 g/m*3 16.7 C 0 km/h
555 11-06-2014 23:20:00 16.7 C 12.36 g/m*3 16.7 C 0 km/h
556 11-06-2014 23:25:00 16.6 C 12.29 g/m*3 16.6 C 0 km/h
557 11-06-2014 23:30:00 16.6 C 12.29 g/m*3 16.6 C 0 km/h
558 11-06-2014 23:35:00 16.5 C 12.36 g/m*3 16.5 C 0 km/h
559 11-06-2014 23:40:00 16.4 C 12.28 g/m*3 16.4 C 0 km/h
560 11-06-2014 23:45:00 16.4 C 12.28 g/m*3 16.4 C 1.6 km/h
561 11-06-2014 23:50:00 16.4 C 12.28 g/m*3 16.4 C 0 km/h
562 11-06-2014 23:55:00 16.3 C 12.21 g/m*3 16.3 C 0 km/h
563 12-06-2014 00:00:00 16.3 C 12.21 g/m*3 16.3 C 0 km/h
564 12-06-2014 00:05:00 16.3 C 12.07 g/m*3 16.3 C 0 km/h
565 12-06-2014 00:10:00 16.3 C 12.07 g/m*3 16.3 C 0 km/h
566 12-06-2014 00:15:00 16.3 C 12.07 g/m*3 16.3 C 0 km/h
567 12-06-2014 00:20:00 16.2 C 12 g/m*3 16.2 C 1.6 km/h
568 12-06-2014 00:25:00 16.2 C 12 g/m*3 16.2 C 0 km/h
569 12-06-2014 00:30:00 16.2 C 12.14 g/m*3 16.2 C 0 km/h
570 12-06-2014 00:35:00 16.1 C 12.06 g/m*3 16.1 C 0 km/h
571 12-06-2014 00:40:00 16.1 C 12.2 g/m*3 16.1 C 0 km/h
572 12-06-2014 00:45:00 16.1 C 12.2 g/m*3 16.1 C 0 km/h
573 12-06-2014 00:50:00 15.9 C 11.92 g/m*3 15.9 C 0 km/h
574 12-06-2014 00:55:00 15.9 C 11.92 g/m*3 15.9 C 0 km/h
575 12-06-2014 01:00:00 15.8 C 11.98 g/m*3 15.8 C 0 km/h
Sensor: Nr:Datum:Temp:Abs-Feuchte:Windchill:Wind:
Aussen-T/F 576 12-06-2014 01:05:00 15.8 C 11.98 g/m*3 15.8 C 0 km/h
577 12-06-2014 01:10:00 15.8 C 12.11 g/m*3 15.8 C 1.6 km/h
578 12-06-2014 01:15:00 15.7 C 11.91 g/m*3 15.7 C 1.6 km/h
579 12-06-2014 01:20:00 15.7 C 11.91 g/m*3 15.7 C 0 km/h
580 12-06-2014 01:25:00 15.7 C 11.91 g/m*3 15.7 C 0 km/h
581 12-06-2014 01:30:00 15.7 C 12.04 g/m*3 15.7 C 0 km/h
582 12-06-2014 01:35:00 15.6 C 11.84 g/m*3 15.6 C 0 km/h
583 12-06-2014 01:40:00 15.6 C 11.84 g/m*3 15.6 C 0 km/h
584 12-06-2014 01:45:00 15.6 C 11.97 g/m*3 15.6 C 0 km/h
585 12-06-2014 01:50:00 15.5 C 11.9 g/m*3 15.5 C 1.6 km/h
586 12-06-2014 01:55:00 15.4 C 11.69 g/m*3 15.4 C 0 km/h
587 12-06-2014 02:00:00 15.4 C 11.82 g/m*3 15.4 C 0 km/h
588 12-06-2014 02:05:00 15.4 C 11.82 g/m*3 15.4 C 0 km/h
589 12-06-2014 02:10:00 15.4 C 11.82 g/m*3 15.4 C 0 km/h
590 12-06-2014 02:15:00 15.4 C 11.82 g/m*3 15.4 C 1.6 km/h
591 12-06-2014 02:20:00 15.3 C 11.62 g/m*3 15.3 C 0 km/h
592 12-06-2014 02:25:00 15.3 C 11.62 g/m*3 15.3 C 0 km/h
593 12-06-2014 02:30:00 15.2 C 11.55 g/m*3 15.2 C 0 km/h
594 12-06-2014 02:35:00 15.2 C 11.55 g/m*3 15.2 C 0 km/h
595 12-06-2014 02:40:00 15.2 C 11.68 g/m*3 15.2 C 0 km/h
596 12-06-2014 02:45:00 15.1 C 11.48 g/m*3 15.1 C 0 km/h
597 12-06-2014 02:50:00 15 C 11.41 g/m*3 15 C 1.6 km/h
598 12-06-2014 02:55:00 15 C 11.41 g/m*3 15 C 0 km/h
599 12-06-2014 03:00:00 14.9 C 11.47 g/m*3 14.9 C 1.6 km/h
600 12-06-2014 03:05:00 14.9 C 11.47 g/m*3 14.9 C 0 km/h
Sensor: Nr:Datum:Temp:Abs-Feuchte:Windchill:Wind:
Aussen-T/F 601 12-06-2014 03:10:00 14.9 C 11.47 g/m*3 14.9 C 0 km/h
602 12-06-2014 03:15:00 14.8 C 11.4 g/m*3 14.8 C 0 km/h
603 12-06-2014 03:20:00 14.8 C 11.27 g/m*3 14.8 C 0 km/h
604 12-06-2014 03:25:00 14.7 C 11.33 g/m*3 14.7 C 0 km/h
605 12-06-2014 03:30:00 14.7 C 11.33 g/m*3 14.7 C 0 km/h
606 12-06-2014 03:35:00 14.7 C 11.33 g/m*3 14.7 C 0 km/h
607 12-06-2014 03:40:00 14.6 C 11.26 g/m*3 14.6 C 0 km/h
608 12-06-2014 03:45:00 14.6 C 11.26 g/m*3 14.6 C 0 km/h
609 12-06-2014 03:50:00 14.6 C 11.26 g/m*3 14.6 C 0 km/h
610 12-06-2014 03:55:00 14.6 C 11.26 g/m*3 14.6 C 1.6 km/h
611 12-06-2014 04:00:00 14.6 C 11.14 g/m*3 14.6 C 0 km/h
612 12-06-2014 04:05:00 14.7 C 11.21 g/m*3 14.7 C 0 km/h
613 12-06-2014 04:10:00 14.7 C 11.08 g/m*3 14.7 C 1.6 km/h
614 12-06-2014 04:15:00 14.7 C 11.21 g/m*3 14.7 C 4.8 km/h
615 12-06-2014 04:20:00 14.8 C 11.02 g/m*3 14.8 C 3.2 km/h
616 12-06-2014 04:25:00 15 C 11.03 g/m*3 15 C 1.6 km/h
617 12-06-2014 04:30:00 15.1 C 10.97 g/m*3 15.1 C 3.2 km/h
618 12-06-2014 04:35:00 15.2 C 11.03 g/m*3 15.2 C 4.8 km/h
619 12-06-2014 04:40:00 15.1 C 11.09 g/m*3 15.1 C 0 km/h
620 12-06-2014 04:45:00 14.9 C 10.96 g/m*3 14.9 C 0 km/h
621 12-06-2014 04:50:00 14.7 C 10.95 g/m*3 14.7 C 0 km/h
622 12-06-2014 04:55:00 14.6 C 10.89 g/m*3 14.6 C 0 km/h
623 12-06-2014 05:00:00 14.5 C 10.94 g/m*3 14.5 C 1.6 km/h
624 12-06-2014 05:05:00 14.4 C 11 g/m*3 14.4 C 0 km/h
625 12-06-2014 05:10:00 14.3 C 10.93 g/m*3 14.3 C 0 km/h
Sensor: Nr:Datum:Temp:Abs-Feuchte:Windchill:Wind:
Aussen-T/F 626 12-06-2014 05:15:00 14.3 C 10.93 g/m*3 14.3 C 1.6 km/h
627 12-06-2014 05:20:00 14.3 C 10.81 g/m*3 14.3 C 1.6 km/h
628 12-06-2014 05:25:00 14.4 C 10.88 g/m*3 14.4 C 0 km/h
629 12-06-2014 05:30:00 14.4 C 10.75 g/m*3 14.4 C 0 km/h
630 12-06-2014 05:35:00 14.5 C 10.82 g/m*3 14.5 C 1.6 km/h
631 12-06-2014 05:40:00 14.5 C 10.82 g/m*3 14.5 C 0 km/h
632 12-06-2014 05:45:00 14.4 C 10.88 g/m*3 14.4 C 0 km/h
633 12-06-2014 05:50:00 14.3 C 10.81 g/m*3 14.3 C 0 km/h
634 12-06-2014 05:55:00 14.2 C 10.75 g/m*3 14.2 C 0 km/h
635 12-06-2014 06:00:00 14.2 C 10.87 g/m*3 14.2 C 0 km/h
636 12-06-2014 06:05:00 14.1 C 10.8 g/m*3 14.1 C 0 km/h
637 12-06-2014 06:10:00 14.1 C 10.8 g/m*3 14.1 C 0 km/h
638 12-06-2014 06:15:00 14.1 C 10.8 g/m*3 14.1 C 1.6 km/h
639 12-06-2014 06:20:00 14.2 C 10.87 g/m*3 14.2 C 0 km/h
640 12-06-2014 06:25:00 14.2 C 10.99 g/m*3 14.2 C 0 km/h
641 12-06-2014 06:30:00 14.2 C 10.87 g/m*3 14.2 C 0 km/h
642 12-06-2014 06:35:00 14.2 C 10.99 g/m*3 14.2 C 0 km/h
643 12-06-2014 06:40:00 14.2 C 10.99 g/m*3 14.2 C 0 km/h
644 12-06-2014 06:45:00 14.2 C 10.99 g/m*3 14.2 C 0 km/h
645 12-06-2014 06:50:00 14.3 C 10.93 g/m*3 14.3 C 0 km/h
646 12-06-2014 06:55:00 14.4 C 11 g/m*3 14.4 C 0 km/h
647 12-06-2014 07:00:00 14.4 C 10.88 g/m*3 14.4 C 0 km/h
648 12-06-2014 07:05:00 14.4 C 10.88 g/m*3 14.4 C 0 km/h
649 12-06-2014 07:10:00 14.6 C 11.14 g/m*3 14.6 C 0 km/h
650 12-06-2014 07:15:00 14.6 C 11.14 g/m*3 14.6 C 0 km/h
Sensor: Nr:Datum:Temp:Abs-Feuchte:Windchill:Wind:
Aussen-T/F 651 12-06-2014 07:20:00 14.6 C 11.26 g/m*3 14.6 C 0 km/h
652 12-06-2014 07:25:00 14.6 C 11.14 g/m*3 14.6 C 0 km/h
653 12-06-2014 07:30:00 14.7 C 11.33 g/m*3 14.7 C 0 km/h
654 12-06-2014 07:35:00 14.8 C 11.27 g/m*3 14.8 C 0 km/h
655 12-06-2014 07:40:00 14.8 C 11.15 g/m*3 14.8 C 0 km/h
656 12-06-2014 07:45:00 14.9 C 11.22 g/m*3 14.9 C 0 km/h
657 12-06-2014 07:50:00 15.2 C 11.42 g/m*3 15.2 C 0 km/h
658 12-06-2014 07:55:00 15.3 C 11.36 g/m*3 15.3 C 1.6 km/h
659 12-06-2014 08:00:00 15.6 C 11.44 g/m*3 15.6 C 0 km/h
660 12-06-2014 08:05:00 15.8 C 11.31 g/m*3 15.8 C 1.6 km/h
661 12-06-2014 08:10:00 16.1 C 11.38 g/m*3 16.1 C 3.2 km/h
662 12-06-2014 08:15:00 16.3 C 11.38 g/m*3 16.3 C 4.8 km/h
663 12-06-2014 08:20:00 16.4 C 11.31 g/m*3 16.4 C 3.2 km/h
664 12-06-2014 08:25:00 16.6 C 11.3 g/m*3 16.6 C 6.4 km/h
665 12-06-2014 08:30:00 16.7 C 11.51 g/m*3 16.7 C 4.8 km/h
666 12-06-2014 08:35:00 16.9 C 11.51 g/m*3 16.9 C 3.2 km/h
667 12-06-2014 08:40:00 17.1 C 11.65 g/m*3 17.1 C 6.4 km/h
668 12-06-2014 08:45:00 17.2 C 11.42 g/m*3 17.2 C 4.8 km/h
669 12-06-2014 08:50:00 17.3 C 11.49 g/m*3 17.3 C 4.8 km/h
670 12-06-2014 08:55:00 17.4 C 11.41 g/m*3 17.4 C 1.6 km/h
671 12-06-2014 09:00:00 17.6 C 11.55 g/m*3 17.6 C 4.8 km/h
672 12-06-2014 09:05:00 17.7 C 11.62 g/m*3 17.7 C 4.8 km/h
673 12-06-2014 09:10:00 17.8 C 11.69 g/m*3 17.8 C 4.8 km/h
674 12-06-2014 09:15:00 17.7 C 11.62 g/m*3 17.7 C 1.6 km/h
675 12-06-2014 09:20:00 17.7 C 11.62 g/m*3 17.7 C 0 km/h
Sensor: Nr:Datum:Temp:Abs-Feuchte:Windchill:Wind:
Aussen-T/F 676 12-06-2014 09:25:00 17.8 C 11.84 g/m*3 17.8 C 1.6 km/h
677 12-06-2014 09:30:00 17.9 C 11.91 g/m*3 17.9 C 1.6 km/h
678 12-06-2014 09:35:00 18 C 11.83 g/m*3 18 C 4.8 km/h
679 12-06-2014 09:40:00 18.1 C 11.74 g/m*3 18.1 C 0 km/h
680 12-06-2014 09:45:00 18.2 C 11.81 g/m*3 18.2 C 4.8 km/h
681 12-06-2014 09:50:00 18.4 C 11.95 g/m*3 18.4 C 6.4 km/h
682 12-06-2014 09:55:00 18.7 C 12.17 g/m*3 18.7 C 4.8 km/h
683 12-06-2014 10:00:00 18.9 C 12.15 g/m*3 18.9 C 4.8 km/h
684 12-06-2014 10:05:00 19.1 C 12.46 g/m*3 19.1 C 1.6 km/h
685 12-06-2014 10:10:00 19.4 C 12.35 g/m*3 19.4 C 3.2 km/h
686 12-06-2014 10:15:00 19.7 C 12.4 g/m*3 19.7 C 3.2 km/h
687 12-06-2014 10:20:00 19.9 C 12.2 g/m*3 19.9 C 3.2 km/h
688 12-06-2014 10:25:00 20.1 C 12.86 g/m*3 20.1 C 1.6 km/h
689 12-06-2014 10:30:00 20.3 C 12.31 g/m*3 20.3 C 1.6 km/h
690 12-06-2014 10:35:00 20.6 C 12.71 g/m*3 20.6 C 4.8 km/h
691 12-06-2014 10:40:00 20.9 C 12.75 g/m*3 20.9 C 4.8 km/h
692 12-06-2014 10:45:00 21 C 12.64 g/m*3 21 C 4.8 km/h
693 12-06-2014 10:50:00 21.2 C 12.6 g/m*3 21.2 C 4.8 km/h
694 12-06-2014 10:55:00 21.4 C 12 g/m*3 21.4 C 3.2 km/h
695 12-06-2014 11:00:00 21.4 C 12.19 g/m*3 21.4 C 4.8 km/h
696 12-06-2014 11:05:00 21.6 C 12.33 g/m*3 21.6 C 4.8 km/h
697 12-06-2014 11:10:00 21.8 C 12.28 g/m*3 21.8 C 9.7 km/h
698 12-06-2014 11:15:00 21.9 C 11.96 g/m*3 21.9 C 11.3 km/h
699 12-06-2014 11:20:00 21.9 C 11.77 g/m*3 21.9 C 11.3 km/h
700 12-06-2014 11:25:00 22.1 C 12.1 g/m*3 22.1 C 9.7 km/h
Sensor: Nr:Datum:Temp:Abs-Feuchte:Windchill:Wind:
Aussen-T/F 701 12-06-2014 11:30:00 22.3 C 12.24 g/m*3 22.3 C 8.1 km/h
702 12-06-2014 11:35:00 22.4 C 12.11 g/m*3 22.4 C 8.1 km/h
703 12-06-2014 11:40:00 22.5 C 12.18 g/m*3 22.5 C 9.7 km/h
704 12-06-2014 11:45:00 22.6 C 12.05 g/m*3 22.6 C 6.4 km/h
705 12-06-2014 11:50:00 22.8 C 12.19 g/m*3 22.8 C 12.9 km/h
706 12-06-2014 11:55:00 22.9 C 11.85 g/m*3 22.9 C 6.4 km/h
707 12-06-2014 12:00:00 23 C 11.92 g/m*3 23 C 4.8 km/h
708 12-06-2014 12:05:00 23 C 11.92 g/m*3 23 C 9.7 km/h
709 12-06-2014 12:10:00 23.1 C 11.37 g/m*3 23.1 C 6.4 km/h
710 12-06-2014 12:15:00 23.2 C 11.64 g/m*3 23.2 C 9.7 km/h
711 12-06-2014 12:20:00 23.3 C 11.29 g/m*3 23.3 C 9.7 km/h
712 12-06-2014 12:25:00 23.4 C 11.78 g/m*3 23.4 C 9.7 km/h
713 12-06-2014 12:30:00 23.7 C 11.98 g/m*3 23.7 C 9.7 km/h
714 12-06-2014 12:35:00 23.9 C 11.25 g/m*3 23.9 C 9.7 km/h
715 12-06-2014 12:40:00 23.9 C 11.68 g/m*3 23.9 C 4.8 km/h
716 12-06-2014 12:45:00 23.9 C 11.47 g/m*3 23.9 C 11.3 km/h
717 12-06-2014 12:50:00 24 C 10.88 g/m*3 24 C 4.8 km/h
718 12-06-2014 12:55:00 23.9 C 11.9 g/m*3 23.9 C 9.7 km/h
719 12-06-2014 13:00:00 24.1 C 11.82 g/m*3 24.1 C 9.7 km/h
720 12-06-2014 13:05:00 24.3 C 11.29 g/m*3 24.3 C 12.9 km/h
721 12-06-2014 13:10:00 24.5 C 11.19 g/m*3 24.5 C 6.4 km/h
722 12-06-2014 13:15:00 24.3 C 11.29 g/m*3 24.3 C 6.4 km/h
723 12-06-2014 13:20:00 24.3 C 11.51 g/m*3 24.3 C 9.7 km/h
724 12-06-2014 13:25:00 24.5 C 12.53 g/m*3 24.5 C 9.7 km/h
725 12-06-2014 13:30:00 24.7 C 12.22 g/m*3 24.7 C 9.7 km/h
Sensor: Nr:Datum:Temp:Abs-Feuchte:Windchill:Wind:
Aussen-T/F 726 12-06-2014 13:35:00 24.7 C 11.32 g/m*3 24.7 C 6.4 km/h
727 12-06-2014 13:40:00 24.7 C 11.32 g/m*3 24.7 C 8.1 km/h
728 12-06-2014 13:45:00 24.8 C 11.61 g/m*3 24.8 C 9.7 km/h
729 12-06-2014 13:50:00 24.9 C 11.45 g/m*3 24.9 C 4.8 km/h
730 12-06-2014 13:55:00 25.1 C 11.57 g/m*3 25.1 C 9.7 km/h
731 12-06-2014 14:00:00 25.2 C 11.17 g/m*3 25.2 C 8.1 km/h
732 12-06-2014 14:05:00 25.3 C 11.94 g/m*3 25.3 C 9.7 km/h
733 12-06-2014 14:10:00 25.4 C 11.54 g/m*3 25.4 C 8.1 km/h
734 12-06-2014 14:15:00 25.6 C 11.9 g/m*3 25.6 C 12.9 km/h
735 12-06-2014 14:20:00 25.5 C 11.6 g/m*3 25.5 C 9.7 km/h
736 12-06-2014 14:25:00 25.5 C 10.42 g/m*3 25.5 C 9.7 km/h
737 12-06-2014 14:30:00 25.4 C 11.3 g/m*3 25.4 C 11.3 km/h
738 12-06-2014 14:35:00 25.7 C 11.25 g/m*3 25.7 C 9.7 km/h
739 12-06-2014 14:40:00 25.7 C 10.77 g/m*3 25.7 C 8.1 km/h
740 12-06-2014 14:45:00 25.8 C 10.83 g/m*3 25.8 C 12.9 km/h
741 12-06-2014 14:50:00 25.8 C 10.35 g/m*3 25.8 C 9.7 km/h
742 12-06-2014 14:55:00 25.6 C 10.71 g/m*3 25.6 C 8.1 km/h
743 12-06-2014 15:00:00 25.7 C 10.53 g/m*3 25.7 C 8.1 km/h
744 12-06-2014 15:05:00 26.1 C 10.28 g/m*3 26.1 C 8.1 km/h
745 12-06-2014 15:10:00 26.2 C 10.34 g/m*3 26.2 C 9.7 km/h
746 12-06-2014 15:15:00 26.1 C 10.28 g/m*3 26.1 C 9.7 km/h
747 12-06-2014 15:20:00 26.1 C 10.28 g/m*3 26.1 C 11.3 km/h
748 12-06-2014 15:25:00 26.1 C 10.53 g/m*3 26.1 C 14.5 km/h
749 12-06-2014 15:30:00 26 C 10.96 g/m*3 26 C 11.3 km/h
750 12-06-2014 15:35:00 26 C 10.47 g/m*3 26 C 8.1 km/h
Sensor: Nr:Datum:Temp:Abs-Feuchte:Windchill:Wind:
Aussen-T/F 751 12-06-2014 15:40:00 26.2 C 9.6 g/m*3 26.2 C 9.7 km/h
752 12-06-2014 15:45:00 26.4 C 9.46 g/m*3 26.4 C 6.4 km/h
753 12-06-2014 15:50:00 26.4 C 9.21 g/m*3 26.4 C 12.9 km/h
754 12-06-2014 15:55:00 26.5 C 9.01 g/m*3 26.5 C 8.1 km/h
755 12-06-2014 16:00:00 26.5 C 9.26 g/m*3 26.5 C 11.3 km/h
756 12-06-2014 16:05:00 26.5 C 9.01 g/m*3 26.5 C 12.9 km/h
757 12-06-2014 16:10:00 26.6 C 9.57 g/m*3 26.6 C 6.4 km/h
758 12-06-2014 16:15:00 26.8 C 9.67 g/m*3 26.8 C 8.1 km/h
759 12-06-2014 16:20:00 26.8 C 9.42 g/m*3 26.8 C 11.3 km/h
760 12-06-2014 16:25:00 26.7 C 9.11 g/m*3 26.7 C 12.9 km/h
761 12-06-2014 16:30:00 26.8 C 8.91 g/m*3 26.8 C 12.9 km/h
762 12-06-2014 16:35:00 26.7 C 9.62 g/m*3 26.7 C 6.4 km/h
763 12-06-2014 16:40:00 27 C 9.52 g/m*3 27 C 9.7 km/h
764 12-06-2014 16:45:00 27.1 C 9.32 g/m*3 27.1 C 14.5 km/h
765 12-06-2014 16:50:00 27.1 C 9.32 g/m*3 27.1 C 8.1 km/h
766 12-06-2014 16:55:00 26.8 C 9.67 g/m*3 26.8 C 9.7 km/h
767 12-06-2014 17:00:00 26.8 C 9.16 g/m*3 26.8 C 11.3 km/h
768 12-06-2014 17:05:00 26.8 C 9.16 g/m*3 26.8 C 11.3 km/h
769 12-06-2014 17:10:00 26.8 C 9.67 g/m*3 26.8 C 11.3 km/h
770 12-06-2014 17:15:00 26.8 C 9.67 g/m*3 26.8 C 11.3 km/h
771 12-06-2014 17:20:00 26.8 C 9.42 g/m*3 26.8 C 11.3 km/h
772 12-06-2014 17:25:00 26.8 C 10.44 g/m*3 26.8 C 12.9 km/h
773 12-06-2014 17:30:00 26.6 C 10.32 g/m*3 26.6 C 12.9 km/h
774 12-06-2014 17:35:00 26.4 C 10.21 g/m*3 26.4 C 14.5 km/h
775 12-06-2014 17:40:00 26.4 C 9.96 g/m*3 26.4 C 9.7 km/h
Sensor: Nr:Datum:Temp:Abs-Feuchte:Windchill:Wind:
Aussen-T/F 776 12-06-2014 17:45:00 26.7 C 10.38 g/m*3 26.7 C 9.7 km/h
777 12-06-2014 17:50:00 26.6 C 9.82 g/m*3 26.6 C 16.1 km/h
778 12-06-2014 17:55:00 26.4 C 9.96 g/m*3 26.4 C 9.7 km/h
779 12-06-2014 18:00:00 26.6 C 10.07 g/m*3 26.6 C 11.3 km/h
780 12-06-2014 18:05:00 26.7 C 10.38 g/m*3 26.7 C 9.7 km/h
781 12-06-2014 18:10:00 26.6 C 9.82 g/m*3 26.6 C 11.3 km/h
782 12-06-2014 18:15:00 26.3 C 9.41 g/m*3 26.3 C 6.4 km/h
783 12-06-2014 18:20:00 26.3 C 9.41 g/m*3 26.3 C 9.7 km/h
784 12-06-2014 18:25:00 26.4 C 9.46 g/m*3 26.4 C 8.1 km/h
785 12-06-2014 18:30:00 26.4 C 10.21 g/m*3 26.4 C 9.7 km/h
786 12-06-2014 18:35:00 26.3 C 9.41 g/m*3 26.3 C 8.1 km/h
787 12-06-2014 18:40:00 26.3 C 9.65 g/m*3 26.3 C 9.7 km/h
788 12-06-2014 18:45:00 26 C 9.98 g/m*3 26 C 11.3 km/h
789 12-06-2014 18:50:00 25.7 C 10.06 g/m*3 25.7 C 11.3 km/h
790 12-06-2014 18:55:00 25.7 C 9.58 g/m*3 25.7 C 12.9 km/h
791 12-06-2014 19:00:00 25.7 C 9.58 g/m*3 25.7 C 9.7 km/h
792 12-06-2014 19:05:00 25.7 C 9.58 g/m*3 25.7 C 9.7 km/h
793 12-06-2014 19:10:00 25.7 C 9.58 g/m*3 25.7 C 9.7 km/h
794 12-06-2014 19:15:00 25.6 C 9.52 g/m*3 25.6 C 9.7 km/h
795 12-06-2014 19:20:00 25.3 C 9.36 g/m*3 25.3 C 11.3 km/h
796 12-06-2014 19:25:00 24.9 C 9.16 g/m*3 24.9 C 8.1 km/h
797 12-06-2014 19:30:00 24.8 C 9.56 g/m*3 24.8 C 9.7 km/h
798 12-06-2014 19:35:00 24.6 C 9.45 g/m*3 24.6 C 11.3 km/h
799 12-06-2014 19:40:00 24.3 C 9.07 g/m*3 24.3 C 9.7 km/h
800 12-06-2014 19:45:00 24.2 C 9.24 g/m*3 24.2 C 9.7 km/h
Sensor: Nr:Datum:Temp:Abs-Feuchte:Windchill:Wind:
Aussen-T/F 801 12-06-2014 19:50:00 24.2 C 9.24 g/m*3 24.2 C 8.1 km/h
802 12-06-2014 19:55:00 24.2 C 9.24 g/m*3 24.2 C 12.9 km/h
803 12-06-2014 20:00:00 24.1 C 9.41 g/m*3 24.1 C 9.7 km/h
804 12-06-2014 20:05:00 23.9 C 9.3 g/m*3 23.9 C 8.1 km/h
805 12-06-2014 20:10:00 23.7 C 9.41 g/m*3 23.7 C 11.3 km/h
806 12-06-2014 20:15:00 23.5 C 9.09 g/m*3 23.5 C 6.4 km/h
807 12-06-2014 20:20:00 23.4 C 9.25 g/m*3 23.4 C 8.1 km/h
808 12-06-2014 20:25:00 23.3 C 8.99 g/m*3 23.3 C 6.4 km/h
809 12-06-2014 20:30:00 23.3 C 8.99 g/m*3 23.3 C 4.8 km/h
810 12-06-2014 20:35:00 23.2 C 9.36 g/m*3 23.2 C 6.4 km/h
811 12-06-2014 20:40:00 22.9 C 8.99 g/m*3 22.9 C 8.1 km/h
812 12-06-2014 20:45:00 22.8 C 9.35 g/m*3 22.8 C 8.1 km/h
813 12-06-2014 20:50:00 22.7 C 9.29 g/m*3 22.7 C 8.1 km/h
814 12-06-2014 20:55:00 22.5 C 9.39 g/m*3 22.5 C 3.2 km/h
815 12-06-2014 21:00:00 22.3 C 9.48 g/m*3 22.3 C 4.8 km/h
816 12-06-2014 21:05:00 22.2 C 9.82 g/m*3 22.2 C 0 km/h
817 12-06-2014 21:10:00 22.2 C 9.82 g/m*3 22.2 C 3.2 km/h
818 12-06-2014 21:15:00 22.2 C 9.82 g/m*3 22.2 C 1.6 km/h
819 12-06-2014 21:20:00 22.2 C 9.82 g/m*3 22.2 C 3.2 km/h
820 12-06-2014 21:25:00 22.2 C 9.82 g/m*3 22.2 C 0 km/h
821 12-06-2014 21:30:00 19.9 C 10.82 g/m*3 19.9 C 0 km/h
822 12-06-2014 21:35:00 19.9 C 10.82 g/m*3 19.9 C 0 km/h
823 12-06-2014 21:40:00 18.9 C 10.53 g/m*3 18.9 C 0 km/h
824 12-06-2014 21:45:00 18.6 C 10.82 g/m*3 18.6 C 0 km/h
825 12-06-2014 21:50:00 18.3 C 10.48 g/m*3 18.3 C 0 km/h
Sensor: Nr:Datum:Temp:Abs-Feuchte:Windchill:Wind:
Aussen-T/F 826 12-06-2014 21:55:00 18.2 C 10.41 g/m*3 18.2 C 1.6 km/h
827 12-06-2014 22:00:00 18 C 10.44 g/m*3 18 C 1.6 km/h
828 12-06-2014 22:05:00 17.9 C 10.38 g/m*3 17.9 C 1.6 km/h
829 12-06-2014 22:10:00 17.9 C 10.23 g/m*3 17.9 C 1.6 km/h
830 12-06-2014 22:15:00 18 C 10.29 g/m*3 18 C 3.2 km/h
831 12-06-2014 22:20:00 18.1 C 10.35 g/m*3 18.1 C 0 km/h
832 12-06-2014 22:25:00 17.9 C 10.23 g/m*3 17.9 C 0 km/h
833 12-06-2014 22:30:00 17.8 C 10.32 g/m*3 17.8 C 3.2 km/h
834 12-06-2014 22:35:00 17.8 C 10.32 g/m*3 17.8 C 1.6 km/h
835 12-06-2014 22:40:00 17.7 C 10.26 g/m*3 17.7 C 1.6 km/h
836 12-06-2014 22:45:00 17.5 C 10.44 g/m*3 17.5 C 0 km/h
837 12-06-2014 22:50:00 17.3 C 10.31 g/m*3 17.3 C 0 km/h
838 12-06-2014 22:55:00 17.2 C 10.4 g/m*3 17.2 C 0 km/h
839 12-06-2014 23:00:00 16.9 C 10.21 g/m*3 16.9 C 0 km/h
840 12-06-2014 23:05:00 16.8 C 10.29 g/m*3 16.8 C 1.6 km/h
841 12-06-2014 23:10:00 16.7 C 10.37 g/m*3 16.7 C 0 km/h
842 12-06-2014 23:15:00 16.6 C 10.45 g/m*3 16.6 C 0 km/h
843 12-06-2014 23:20:00 16.5 C 10.39 g/m*3 16.5 C 0 km/h
844 12-06-2014 23:25:00 16.4 C 10.33 g/m*3 16.4 C 0 km/h
845 12-06-2014 23:30:00 16.3 C 10.27 g/m*3 16.3 C 0 km/h
846 12-06-2014 23:35:00 16.3 C 10.27 g/m*3 16.3 C 0 km/h
847 12-06-2014 23:40:00 16.2 C 10.34 g/m*3 16.2 C 0 km/h
848 12-06-2014 23:45:00 16.1 C 10.42 g/m*3 16.1 C 0 km/h
849 12-06-2014 23:50:00 16 C 10.35 g/m*3 16 C 0 km/h
850 12-06-2014 23:55:00 15.9 C 10.43 g/m*3 15.9 C 0 km/h

Legende:
   Min
   Max


Maximal/Minimal-Werte vom 10.06.2014 - 12.06.2014

Sensor Min Max Avg
Temp
(Aussen-T/F)
14.1 °C
12-06-2014  06:05:00
35.1 °C
10-06-2014  17:10:00
21.27 °C
Abs-Feuchte
(Aussen-T/F)
8.91 g/m*3
12-06-2014  16:30:00
17.01 g/m*3
10-06-2014  13:30:00
13.12 g/m*3
Windchill
(Aussen-T/F)
14.1 C
12-06-2014  06:05:00
35.1 C
10-06-2014  17:10:00
21.24 C

Die Daten stammen von einer Davis Vantage Pro 2 Wetter-Station und werden unter Linux mit der Software wview2wettercgi und aufbereitet. Alle Angaben erfolgen ohne Gewähr für ihre Vollständigkeit oder Richtigkeit.
Kontakt: Rainer Krienke krienke@uni-koblenz.de . Meine Webseiten an der Uni Koblenz oder privat.
Version: $Revision: 0.78 $